Time;durP1;ratioP1;P1;durP2;ratioP2;P2;SDS_P1;SDS_P2;PMS_P1;PMS_P2;Temp;Humidity;BMP_temperature;BMP_pressure;BME280_temperature;BME280_humidity;BME280_pressure;Samples;Min_cycle;Max_cycle;Signal;HPM_P1;HPM_P2
2023/10/02 00:05:08;;;;;;;9.93;3.72;;;;;;;12.68;84.37;101014.09;4991206;28;20580;-47
2023/10/02 00:07:37;;;;;;;8.48;3.15;;;;;;;12.63;84.79;101019.88;4992071;28;20551;-47
2023/10/02 00:10:05;;;;;;;11.30;2.75;;;;;;;12.61;84.96;101007.50;4991840;28;20104;-49
2023/10/02 00:12:34;;;;;;;7.80;2.70;;;;;;;12.62;85.23;101012.75;4991674;28;20054;-48
2023/10/02 00:15:12;;;;;;;12.02;3.38;;;;;;;12.63;85.20;101000.44;4992807;28;20133;-50
2023/10/02 00:17:43;;;;;;;12.88;4.18;;;;;;;12.64;84.98;101012.38;4991827;28;20738;-46
2023/10/02 00:20:20;;;;;;;8.95;2.53;;;;;;;12.60;85.36;101019.81;4990489;28;20512;-49
2023/10/02 00:22:50;;;;;;;8.38;2.63;;;;;;;12.65;85.23;101020.38;4991818;28;20060;-46
2023/10/02 00:25:21;;;;;;;10.50;2.80;;;;;;;12.70;85.24;101014.56;4988538;28;20489;-47
2023/10/02 00:27:54;;;;;;;7.88;2.78;;;;;;;12.72;84.95;101019.75;4988667;28;20056;-48
2023/10/02 00:30:33;;;;;;;8.02;2.80;;;;;;;12.74;84.83;101017.41;4989555;28;20038;-48
2023/10/02 00:33:02;;;;;;;11.75;3.28;;;;;;;12.70;84.40;101022.91;4991582;28;20141;-46
2023/10/02 00:35:30;;;;;;;10.65;2.75;;;;;;;12.67;84.67;101026.38;4988777;28;20065;-47
2023/10/02 00:37:57;;;;;;;7.85;2.75;;;;;;;12.67;84.60;101023.59;4991604;28;20046;-46
2023/10/02 00:40:31;;;;;;;11.15;2.83;;;;;;;12.66;84.74;101013.63;4991048;28;20081;-46
2023/10/02 00:43:33;;;;;;;13.45;2.97;;;;;;;12.65;84.78;101023.16;4991939;28;20050;-46
2023/10/02 00:45:58;;;;;;;8.50;2.00;;;;;;;12.64;84.53;101024.28;4991764;28;20393;-47
2023/10/02 00:48:33;;;;;;;6.65;2.92;;;;;;;12.62;84.76;101020.25;4992122;28;20077;-46
2023/10/02 00:51:11;;;;;;;9.55;2.35;;;;;;;12.59;84.67;101030.09;4990405;28;20157;-47
2023/10/02 00:53:53;;;;;;;5.25;2.17;;;;;;;12.57;84.78;101032.44;4991383;28;20056;-47
2023/10/02 00:56:20;;;;;;;;;;;;;;;12.53;85.28;101028.72;4991276;28;20054;-46
2023/10/02 00:59:00;;;;;;;12.95;2.80;;;;;;;12.50;84.82;101026.63;4991338;28;19921;-47
2023/10/02 01:01:31;;;;;;;11.63;2.72;;;;;;;12.50;84.90;101018.31;4990835;28;20061;-47
2023/10/02 01:04:09;;;;;;;8.18;2.17;;;;;;;12.48;84.81;101017.88;4991756;28;20116;-46
2023/10/02 01:09:33;;;;;;;10.98;2.75;;;;;;;12.50;84.98;101017.50;4991393;28;20043;-46
2023/10/02 01:12:00;;;;;;;6.90;2.17;;;;;;;12.50;85.10;101020.28;4987624;28;20101;-47
2023/10/02 01:14:47;;;;;;;17.58;2.63;;;;;;;12.47;85.10;101007.91;4990953;28;20141;-47
2023/10/02 01:17:16;;;;;;;13.25;2.03;;;;;;;12.47;85.07;101023.78;4990742;28;20077;-47
2023/10/02 01:19:53;;;;;;;10.65;2.60;;;;;;;12.45;85.29;101021.34;4990739;28;20043;-46
2023/10/02 01:22:43;;;;;;;10.77;2.58;;;;;;;12.44;85.24;101022.50;4991516;28;20053;-47
2023/10/02 01:25:15;;;;;;;11.55;2.30;;;;;;;12.44;85.31;101014.19;4988444;28;20077;-46
2023/10/02 01:27:50;;;;;;;11.43;3.15;;;;;;;12.43;85.46;101007.00;4990860;28;20046;-46
2023/10/02 01:30:21;;;;;;;9.48;2.47;;;;;;;12.42;85.45;101010.94;4989327;28;20129;-47
2023/10/02 01:35:50;;;;;;;8.77;3.25;;;;;;;12.40;85.51;101004.91;4988171;28;20058;-48
2023/10/02 01:38:32;;;;;;;12.23;2.05;;;;;;;12.39;85.70;100997.75;4991239;28;20052;-46
2023/10/02 01:41:07;;;;;;;6.63;2.20;;;;;;;12.37;85.63;101000.06;4990736;28;20050;-47
2023/10/02 01:43:44;;;;;;;5.13;1.95;;;;;;;12.34;85.60;100995.22;4990727;28;20657;-53
2023/10/02 01:46:17;;;;;;;14.35;3.35;;;;;;;12.30;85.55;101002.63;4989087;28;20049;-48
2023/10/02 01:48:48;;;;;;;11.60;2.55;;;;;;;12.29;85.65;101006.56;4986116;28;20059;-46
2023/10/02 01:51:21;;;;;;;9.18;2.05;;;;;;;12.28;85.95;101004.97;4987984;28;20042;-46
2023/10/02 01:54:02;;;;;;;6.40;1.85;;;;;;;12.27;85.99;100995.00;4988164;28;20050;-47
2023/10/02 01:56:34;;;;;;;13.40;3.25;;;;;;;12.24;85.97;100998.47;4986706;28;20061;-46
2023/10/02 01:59:11;;;;;;;14.13;2.27;;;;;;;12.21;86.03;100999.19;4986074;28;20047;-46
2023/10/02 02:01:56;;;;;;;9.93;2.05;;;;;;;12.17;86.12;100989.94;4982278;28;20050;-47
2023/10/02 02:04:28;;;;;;;9.52;1.90;;;;;;;12.18;86.25;100988.75;4988374;28;20501;-48
2023/10/02 02:06:58;;;;;;;8.53;2.23;;;;;;;12.19;86.09;100993.16;4987435;28;20054;-47
2023/10/02 02:09:30;;;;;;;5.80;2.28;;;;;;;12.17;86.23;100984.41;4983484;28;20795;-47
2023/10/02 02:12:13;;;;;;;8.70;2.00;;;;;;;12.15;86.34;100978.41;4984465;28;20088;-48
2023/10/02 02:14:51;;;;;;;9.48;2.13;;;;;;;12.12;86.32;100990.19;4982332;28;20408;-46
2023/10/02 02:17:23;;;;;;;4.53;2.70;;;;;;;12.10;86.44;100986.94;4983671;28;20042;-47
2023/10/02 02:19:55;;;;;;;16.40;3.05;;;;;;;12.07;86.50;100982.09;4986905;28;20101;-47
2023/10/02 02:22:26;;;;;;;8.95;2.03;;;;;;;12.05;86.46;100990.75;4984011;28;20042;-47
2023/10/02 02:24:55;;;;;;;6.53;2.17;;;;;;;12.06;86.58;100986.84;4983934;28;20411;-49
2023/10/02 02:27:22;;;;;;;5.35;1.58;;;;;;;12.06;86.67;100991.56;4987394;28;20507;-46
2023/10/02 02:29:54;;;;;;;14.40;3.17;;;;;;;12.04;86.75;100991.13;4984216;28;20066;-49
2023/10/02 02:32:36;;;;;;;;;;;;;;;12.01;86.62;100989.03;4988687;28;20058;-47
2023/10/02 02:35:06;;;;;;;9.90;1.60;;;;;;;11.95;86.60;100996.78;4989839;28;19972;-47
2023/10/02 02:37:35;;;;;;;5.60;1.55;;;;;;;11.93;86.66;100992.75;4988099;28;20574;-47
2023/10/02 02:42:51;;;;;;;9.82;3.30;;;;;;;11.93;86.62;100987.19;4984801;28;20069;-47
2023/10/02 02:45:29;;;;;;;8.73;1.80;;;;;;;11.92;86.90;100978.06;4989441;28;20068;-47
2023/10/02 02:48:04;;;;;;;8.63;1.88;;;;;;;11.89;86.68;100978.75;4987331;28;20125;-47
2023/10/02 02:50:40;;;;;;;9.38;2.05;;;;;;;11.88;86.95;100973.56;4986733;28;20050;-47
2023/10/02 02:53:22;;;;;;;20.45;2.10;;;;;;;11.85;86.99;100974.25;4989088;28;20061;-46
2023/10/02 02:56:14;;;;;;;5.55;1.27;;;;;;;11.83;87.08;100990.44;4985338;28;20054;-46
2023/10/02 02:58:44;;;;;;;8.75;1.67;;;;;;;11.82;87.14;101000.72;4988249;28;20566;-46
2023/10/02 03:01:12;;;;;;;13.50;2.35;;;;;;;11.79;87.11;100979.22;5026105;23;20052;-46
2023/10/02 03:03:42;;;;;;;7.65;2.60;;;;;;;11.80;87.16;100988.38;5007814;28;20050;-47
2023/10/02 03:06:22;;;;;;;8.80;1.77;;;;;;;11.76;87.39;100985.47;5007072;28;20569;-49
2023/10/02 03:08:53;;;;;;;9.73;2.00;;;;;;;11.75;87.40;100958.91;5007198;28;20096;-48
2023/10/02 03:11:28;;;;;;;7.20;1.70;;;;;;;11.74;87.52;100962.00;5007808;28;20054;-48
2023/10/02 03:14:14;;;;;;;6.90;1.83;;;;;;;11.76;87.52;100974.38;5008653;28;20050;-46
2023/10/02 03:16:45;;;;;;;5.63;2.08;;;;;;;11.75;87.38;100963.63;5008455;28;20399;-50
2023/10/02 03:19:13;;;;;;;5.43;1.55;;;;;;;11.75;87.26;100969.19;5006555;28;20054;-48
2023/10/02 03:21:42;;;;;;;7.95;1.38;;;;;;;11.74;87.55;100973.09;5008544;28;20180;-46
2023/10/02 03:24:12;;;;;;;7.05;1.65;;;;;;;11.70;87.51;100966.66;5007703;28;20447;-48
2023/10/02 03:26:41;;;;;;;5.32;1.52;;;;;;;11.67;87.65;100959.81;5004235;28;20495;-47
2023/10/02 03:29:11;;;;;;;7.43;1.60;;;;;;;11.65;87.85;100956.53;5008697;28;20096;-46
2023/10/02 03:31:49;;;;;;;5.25;1.65;;;;;;;11.65;88.15;100964.88;4981248;28;20077;-47
2023/10/02 03:34:27;;;;;;;7.57;1.80;;;;;;;11.67;87.98;100961.75;5000608;28;20057;-47
2023/10/02 03:37:01;;;;;;;10.77;1.63;;;;;;;11.67;88.07;100965.34;5008251;28;20046;-46
2023/10/02 03:42:14;;;;;;;6.47;1.60;;;;;;;11.63;88.41;100961.63;5007894;28;20491;-50
2023/10/02 03:44:45;;;;;;;11.38;2.13;;;;;;;11.58;88.49;100965.47;5012436;28;20049;-47
2023/10/02 03:47:15;;;;;;;4.82;1.38;;;;;;;11.55;88.64;100963.38;5010400;28;20160;-48
2023/10/02 03:49:43;;;;;;;13.43;2.20;;;;;;;11.54;88.85;100955.41;5011506;28;20046;-48
2023/10/02 03:52:14;;;;;;;3.35;1.45;;;;;;;11.54;88.88;100960.97;5011484;28;20555;-46
2023/10/02 03:54:44;;;;;;;7.47;1.45;;;;;;;11.51;88.92;100959.69;5011358;28;20038;-46
2023/10/02 04:00:16;;;;;;;6.43;1.30;;;;;;;11.47;89.13;100969.84;5011224;28;20466;-47
2023/10/02 04:02:45;;;;;;;9.73;1.63;;;;;;;11.49;89.33;100964.75;5010524;28;20093;-47
2023/10/02 04:05:30;;;;;;;7.70;2.10;;;;;;;11.49;89.15;100964.75;5011032;28;20454;-48
2023/10/02 04:08:12;;;;;;;4.57;2.05;;;;;;;11.43;89.20;100946.75;5010324;28;20081;-46
2023/10/02 04:10:56;;;;;;;11.93;1.60;;;;;;;11.38;89.21;100951.72;5011369;28;20056;-48
2023/10/02 04:13:35;;;;;;;9.13;2.22;;;;;;;11.35;89.11;100942.13;5011017;28;20157;-46
2023/10/02 04:19:00;;;;;;;6.78;1.90;;;;;;;11.32;89.41;100953.06;5011345;28;20057;-47
2023/10/02 04:21:33;;;;;;;7.90;2.30;;;;;;;11.29;89.34;100949.03;5011040;28;20085;-46
2023/10/02 04:24:02;;;;;;;8.27;1.80;;;;;;;11.30;89.34;100953.44;5009080;28;20037;-47
2023/10/02 04:26:33;;;;;;;4.85;1.25;;;;;;;11.29;89.29;100949.03;5010836;28;20092;-48
2023/10/02 04:32:04;;;;;;;11.52;1.63;;;;;;;11.26;89.04;100948.91;5009806;28;20084;-51
2023/10/02 04:34:35;;;;;;;10.68;1.52;;;;;;;11.25;88.88;100934.22;5007812;28;20045;-47
2023/10/02 04:37:19;;;;;;;10.48;2.40;;;;;;;11.26;88.89;100941.41;5010497;28;20057;-47
2023/10/02 04:39:54;;;;;;;14.00;2.05;;;;;;;11.23;88.84;100938.50;5009621;28;20042;-47
2023/10/02 04:45:20;;;;;;;4.50;1.23;;;;;;;11.21;88.64;100930.56;5008452;28;20054;-47
2023/10/02 04:47:54;;;;;;;4.90;1.30;;;;;;;11.20;88.68;100931.69;5008650;28;20049;-48
2023/10/02 04:50:34;;;;;;;6.13;1.83;;;;;;;11.18;88.61;100928.47;5010845;28;20046;-47
2023/10/02 04:55:44;;;;;;;7.70;1.50;;;;;;;11.11;88.82;100928.22;5004472;28;20148;-47
2023/10/02 04:58:19;;;;;;;6.20;1.23;;;;;;;11.09;88.95;100925.00;5010468;28;20068;-47
2023/10/02 05:03:46;;;;;;;9.55;2.30;;;;;;;11.11;89.00;100908.03;5010854;28;20041;-46
2023/10/02 05:06:16;;;;;;;7.20;1.40;;;;;;;11.12;88.98;100918.75;5010229;28;20100;-47
2023/10/02 05:11:26;;;;;;;7.35;1.67;;;;;;;11.12;88.95;100917.97;5010171;28;20073;-47
2023/10/02 05:16:33;;;;;;;7.78;1.15;;;;;;;11.15;88.96;100918.06;5008714;28;20056;-47
2023/10/02 05:19:05;;;;;;;19.00;2.70;;;;;;;11.15;88.88;100920.84;5008712;28;20103;-49
2023/10/02 05:21:39;;;;;;;4.70;1.60;;;;;;;11.13;88.70;100920.38;5008599;28;20132;-47
2023/10/02 05:24:11;;;;;;;9.82;2.35;;;;;;;11.11;89.08;100927.41;5007993;28;20141;-47
2023/10/02 05:26:41;;;;;;;7.22;2.33;;;;;;;11.09;88.79;100919.47;5007970;28;20041;-47
2023/10/02 05:29:17;;;;;;;9.18;1.65;;;;;;;11.05;89.04;100918.53;5009848;28;20492;-48
2023/10/02 05:31:45;;;;;;;10.60;1.92;;;;;;;11.00;89.03;100919.56;5008414;28;20042;-47
2023/10/02 05:34:21;;;;;;;6.90;1.50;;;;;;;10.99;89.06;100920.69;5008566;28;20049;-53
2023/10/02 05:39:42;;;;;;;9.50;1.58;;;;;;;10.98;88.91;100921.06;5008009;28;20041;-46
2023/10/02 05:42:16;;;;;;;12.25;2.97;;;;;;;10.97;89.06;100925.78;5004772;28;20038;-49
2023/10/02 05:44:44;;;;;;;9.82;1.15;;;;;;;10.99;88.88;100942.06;5008658;28;20057;-48
2023/10/02 05:47:15;;;;;;;7.60;1.77;;;;;;;10.98;88.90;100940.44;5008643;28;20045;-49
2023/10/02 05:49:47;;;;;;;9.40;1.52;;;;;;;10.98;88.87;100935.72;5008547;28;20495;-50
2023/10/02 05:52:18;;;;;;;4.13;1.05;;;;;;;10.96;88.90;100929.69;5007536;28;20038;-49
2023/10/02 05:54:55;;;;;;;11.48;2.60;;;;;;;10.97;88.73;100927.75;5007970;28;20125;-48
2023/10/02 05:57:22;;;;;;;7.57;2.30;;;;;;;10.96;88.96;100929.69;5008094;28;20133;-47
2023/10/02 05:59:54;;;;;;;6.68;1.65;;;;;;;10.97;88.93;100938.81;5009037;28;20163;-47
2023/10/02 06:02:24;;;;;;;5.30;1.50;;;;;;;10.93;88.93;100932.34;5005863;28;20058;-48
2023/10/02 06:04:53;;;;;;;8.35;1.58;;;;;;;10.93;89.05;100935.13;5009084;28;20037;-47
2023/10/02 06:07:40;;;;;;;8.45;1.73;;;;;;;10.94;89.18;100945.03;5009364;28;20407;-46
2023/10/02 06:10:09;;;;;;;9.45;1.52;;;;;;;10.93;89.28;100932.34;5008121;28;20132;-48
2023/10/02 06:12:42;;;;;;;4.78;1.50;;;;;;;10.95;89.11;100924.50;5008400;28;20049;-49
2023/10/02 06:15:43;;;;;;;10.45;1.75;;;;;;;10.98;89.28;100923.81;5006166;28;20052;-52
2023/10/02 06:17:58;;;;;;;9.18;1.88;;;;;;;10.98;89.39;100923.81;5006334;28;20089;-47
2023/10/02 06:20:25;;;;;;;5.28;1.38;;;;;;;11.00;89.44;100922.34;5008880;28;20050;-47
2023/10/02 06:23:05;;;;;;;9.95;1.70;;;;;;;11.02;89.31;100924.75;5007596;28;20064;-47
2023/10/02 06:25:32;;;;;;;8.45;1.83;;;;;;;11.04;89.36;100947.38;5007061;28;20033;-47
2023/10/02 06:28:19;;;;;;;11.65;2.72;;;;;;;11.06;89.43;100942.31;5008087;28;20088;-48
2023/10/02 06:30:49;;;;;;;16.92;2.33;;;;;;;11.07;89.51;100941.13;5005511;28;20041;-46
2023/10/02 06:33:21;;;;;;;8.82;2.00;;;;;;;11.07;89.70;100932.81;5008675;28;20034;-46
2023/10/02 06:36:00;;;;;;;9.43;1.70;;;;;;;11.08;89.67;100937.22;5008204;28;20547;-48
2023/10/02 06:38:29;;;;;;;10.90;2.33;;;;;;;11.07;89.70;100927.28;5006040;28;20069;-49
2023/10/02 06:40:58;;;;;;;7.85;1.77;;;;;;;11.06;89.76;100939.53;5008890;28;20056;-47
2023/10/02 06:43:30;;;;;;;7.18;2.08;;;;;;;11.06;89.96;100945.09;5008907;28;20088;-46
2023/10/02 06:46:07;;;;;;;16.70;3.67;;;;;;;11.06;89.99;100933.19;5008003;28;20107;-47
2023/10/02 06:48:39;;;;;;;12.82;5.05;;;;;;;11.06;90.33;100935.97;5009278;28;20038;-48
2023/10/02 06:51:07;;;;;;;14.52;1.77;;;;;;;11.08;90.26;100945.53;5008372;28;20050;-46
2023/10/02 06:53:34;;;;;;;5.82;2.47;;;;;;;11.12;90.49;100951.22;5009199;28;20152;-46
2023/10/02 06:56:05;;;;;;;6.95;1.85;;;;;;;11.13;90.63;100948.09;5008355;28;20487;-47
2023/10/02 06:58:46;;;;;;;10.10;2.78;;;;;;;11.17;90.58;100943.50;5008701;28;20073;-46
2023/10/02 07:01:14;;;;;;;6.65;2.13;;;;;;;11.21;90.61;100943.59;5009263;28;20050;-46
2023/10/02 07:03:50;;;;;;;11.73;2.05;;;;;;;11.24;90.67;100929.06;5009510;28;20037;-46
2023/10/02 07:06:23;;;;;;;9.23;2.30;;;;;;;11.29;90.48;100948.22;5007736;28;20397;-51
2023/10/02 07:09:10;;;;;;;7.78;2.05;;;;;;;11.32;90.42;100940.03;5005126;28;20092;-49
2023/10/02 07:11:39;;;;;;;9.93;2.00;;;;;;;11.34;90.29;100943.25;5006788;28;20057;-47
2023/10/02 07:14:09;;;;;;;8.93;2.65;;;;;;;11.36;90.51;100956.75;5006881;28;20057;-48
2023/10/02 07:16:39;;;;;;;8.70;2.22;;;;;;;11.36;90.40;100946.50;5007983;28;20149;-47
2023/10/02 07:19:06;;;;;;;12.05;2.72;;;;;;;11.38;90.48;100952.53;5009748;28;20170;-47
2023/10/02 07:21:35;;;;;;;10.15;2.58;;;;;;;11.41;90.30;100951.03;5010879;28;20088;-47
2023/10/02 07:24:03;;;;;;;8.57;1.73;;;;;;;11.42;90.36;100958.16;5011496;28;20116;-46
2023/10/02 07:26:49;;;;;;;10.52;2.03;;;;;;;11.44;90.30;100948.34;5011224;28;20049;-47
2023/10/02 07:29:17;;;;;;;8.82;1.50;;;;;;;11.48;90.52;100949.28;5010036;28;20495;-46
2023/10/02 07:31:45;;;;;;;9.57;1.90;;;;;;;11.50;90.94;100955.28;5011524;28;20065;-47
2023/10/02 07:34:15;;;;;;;5.05;1.65;;;;;;;11.51;90.65;100943.06;5007555;28;20034;-48
2023/10/02 07:36:46;;;;;;;10.10;2.30;;;;;;;11.54;90.58;100931.25;5012857;28;20038;-45
2023/10/02 07:42:04;;;;;;;9.77;1.88;;;;;;;11.63;90.74;100939.44;5011790;28;20388;-46
2023/10/02 07:44:37;;;;;;;9.70;1.85;;;;;;;11.65;90.68;100937.13;5009518;28;20414;-48
2023/10/02 07:47:22;;;;;;;10.33;2.77;;;;;;;11.68;90.67;100941.97;5009595;28;20088;-46
2023/10/02 07:49:58;;;;;;;11.60;2.70;;;;;;;11.72;90.81;100947.69;5009985;28;20299;-46
2023/10/02 07:52:35;;;;;;;15.10;2.13;;;;;;;11.73;90.59;100933.47;5013593;28;20487;-46
2023/10/02 07:55:10;;;;;;;14.35;3.20;;;;;;;11.79;90.57;100939.59;5012298;28;20046;-46
2023/10/02 07:57:38;;;;;;;20.58;2.95;;;;;;;11.82;90.72;100934.16;5012131;28;20052;-46
2023/10/02 08:00:33;;;;;;;14.35;2.25;;;;;;;11.87;90.61;100939.47;5012177;28;20068;-46
2023/10/02 08:02:53;;;;;;;12.15;2.35;;;;;;;11.93;90.60;100937.25;5009754;28;20061;-46
2023/10/02 08:05:20;;;;;;;8.68;2.03;;;;;;;11.97;90.83;100936.19;5011099;28;20057;-47
2023/10/02 08:07:47;;;;;;;10.02;1.70;;;;;;;12.03;90.72;100931.22;5012092;28;20488;-46
2023/10/02 08:10:17;;;;;;;10.40;2.08;;;;;;;12.08;90.68;100928.19;5011499;28;20476;-46
2023/10/02 08:12:57;;;;;;;13.40;3.58;;;;;;;12.12;90.64;100929.13;5011948;28;20061;-46
2023/10/02 08:15:27;;;;;;;9.25;2.60;;;;;;;12.17;90.55;100923.34;5011534;28;20045;-46
2023/10/02 08:18:04;;;;;;;13.18;3.28;;;;;;;12.23;90.58;100933.81;5006298;28;20100;-47
2023/10/02 08:20:32;;;;;;;11.90;1.90;;;;;;;12.30;90.41;100929.66;5010722;28;20049;-46
2023/10/02 08:23:21;;;;;;;9.23;2.50;;;;;;;12.33;90.35;100932.53;5008435;28;20488;-46
2023/10/02 08:26:03;;;;;;;11.63;3.30;;;;;;;12.38;90.36;100932.28;5010176;28;20073;-45
2023/10/02 08:28:52;;;;;;;9.10;2.05;;;;;;;12.45;90.64;100940.81;5010292;28;20506;-46
2023/10/02 08:31:19;;;;;;;10.07;2.00;;;;;;;12.51;90.46;100936.63;5011209;28;20045;-46
2023/10/02 08:33:47;;;;;;;9.32;2.20;;;;;;;12.60;90.57;100950.38;5011258;28;20037;-46
2023/10/02 08:36:28;;;;;;;10.07;1.87;;;;;;;12.68;90.51;100954.97;5010832;28;20068;-46
2023/10/02 08:38:55;;;;;;;8.55;2.13;;;;;;;12.75;90.56;100944.84;5006651;28;20287;-48
2023/10/02 08:41:46;;;;;;;10.45;1.90;;;;;;;12.84;90.52;100948.25;5010926;28;20050;-45
2023/10/02 08:44:14;;;;;;;11.10;2.10;;;;;;;12.93;90.75;100958.41;5009578;28;20081;-46
2023/10/02 08:46:43;;;;;;;7.75;2.03;;;;;;;13.00;90.46;100948.28;5011348;28;20038;-47
2023/10/02 08:49:14;;;;;;;8.45;2.05;;;;;;;13.08;90.68;100950.13;5011369;28;20050;-46
2023/10/02 08:51:48;;;;;;;6.47;2.47;;;;;;;13.14;90.54;100945.09;5011287;28;20508;-46
2023/10/02 08:54:17;;;;;;;7.43;1.50;;;;;;;13.16;90.57;100951.13;5009861;28;20065;-46
2023/10/02 08:56:48;;;;;;;9.38;2.22;;;;;;;13.16;90.55;100951.13;5010637;28;20061;-46
2023/10/02 08:59:17;;;;;;;12.38;2.58;;;;;;;13.12;90.26;100955.78;5011133;28;20497;-46
2023/10/02 09:01:47;;;;;;;11.32;2.10;;;;;;;13.10;90.42;100941.44;5011075;28;20085;-46
2023/10/02 09:04:22;;;;;;;14.77;2.65;;;;;;;13.07;90.45;100953.28;5009231;28;20060;-49
2023/10/02 09:06:53;;;;;;;7.43;2.67;;;;;;;13.04;90.33;100954.75;5011032;28;20100;-46
2023/10/02 09:09:23;;;;;;;10.90;2.10;;;;;;;13.03;90.42;100969.81;5010228;28;20053;-46
2023/10/02 09:11:53;;;;;;;13.10;2.40;;;;;;;13.05;90.50;100961.13;5011190;28;20065;-46
2023/10/02 09:14:39;;;;;;;11.93;2.80;;;;;;;13.06;90.38;100968.28;5010313;28;20038;-46
2023/10/02 09:17:20;;;;;;;8.48;2.47;;;;;;;13.07;90.42;100953.28;5009714;28;20042;-51
2023/10/02 09:20:03;;;;;;;12.10;2.80;;;;;;;13.13;90.28;100952.63;5009655;28;20479;-46
2023/10/02 09:22:41;;;;;;;12.50;2.30;;;;;;;13.18;90.20;100966.28;5009867;28;20056;-47
2023/10/02 09:25:12;;;;;;;11.35;2.20;;;;;;;13.25;90.25;100957.31;5010439;28;20508;-50
2023/10/02 09:28:35;;;;;;;10.27;2.75;;;;;;;13.34;90.14;100953.19;5010435;28;20038;-46
2023/10/02 09:30:41;;;;;;;12.32;2.50;;;;;;;13.46;90.14;100968.97;5004929;28;20137;-46
2023/10/02 09:33:33;;;;;;;13.02;3.55;;;;;;;13.57;90.10;100974.81;5010245;28;20052;-47
2023/10/02 09:36:34;;;;;;;10.40;2.28;;;;;;;13.63;90.06;100965.84;5009878;28;20494;-46
2023/10/02 09:39:36;;;;;;;13.63;2.50;;;;;;;13.70;90.02;100973.53;5005652;28;20041;-47
2023/10/02 09:42:07;;;;;;;13.15;2.40;;;;;;;13.74;89.75;100975.25;5007395;28;20136;-51
2023/10/02 09:44:46;;;;;;;12.02;2.20;;;;;;;13.79;89.57;100979.75;5007318;28;20404;-46
2023/10/02 09:47:25;;;;;;;13.38;2.97;;;;;;;13.80;89.32;100990.50;5007910;28;20148;-46
2023/10/02 09:50:11;;;;;;;11.52;2.03;;;;;;;13.82;88.94;100988.16;5010219;28;20038;-46
2023/10/02 09:52:58;;;;;;;7.65;2.08;;;;;;;13.82;88.76;100985.38;5010378;28;20053;-46
2023/10/02 09:56:06;;;;;;;13.23;2.10;;;;;;;13.80;88.60;100976.59;5009927;28;20096;-46
2023/10/02 09:58:46;;;;;;;8.35;2.03;;;;;;;13.75;88.39;100962.94;5006323;28;20046;-46
2023/10/02 10:03:57;;;;;;;13.13;2.42;;;;;;;13.70;88.21;100932.63;5008307;28;20053;-45
2023/10/02 10:06:41;;;;;;;12.60;2.40;;;;;;;13.72;88.19;100933.06;5008140;28;20047;-45
2023/10/02 10:11:42;;;;;;;9.90;2.15;;;;;;;13.79;88.14;100919.31;5009677;28;20056;-46
2023/10/02 10:14:36;;;;;;;15.80;3.00;;;;;;;13.81;88.34;100916.19;5009765;28;20502;-52
2023/10/02 10:17:13;;;;;;;6.50;2.28;;;;;;;13.80;88.23;100923.72;5008345;28;20038;-48
2023/10/02 10:20:18;;;;;;;12.77;2.17;;;;;;;13.81;88.31;100925.34;5009200;28;20045;-47
2023/10/02 10:22:56;;;;;;;14.98;1.67;;;;;;;13.79;87.77;100924.09;5009629;28;20046;-48
2023/10/02 10:25:32;;;;;;;8.10;1.75;;;;;;;13.80;87.68;100942.38;5010302;28;20041;-46
2023/10/02 10:28:06;;;;;;;7.13;2.42;;;;;;;13.79;87.35;100921.31;5008714;28;20050;-46
2023/10/02 10:30:38;;;;;;;8.00;1.77;;;;;;;13.78;87.39;100928.84;5008955;28;20050;-48
2023/10/02 10:35:49;;;;;;;16.45;3.15;;;;;;;13.79;87.24;100919.31;5007909;28;20123;-46
2023/10/02 10:38:26;;;;;;;9.93;1.88;;;;;;;13.80;87.05;100901.44;5009374;28;20507;-47
2023/10/02 10:41:06;;;;;;;10.02;2.95;;;;;;;13.86;87.12;100905.56;4980070;28;20140;-46
2023/10/02 10:43:44;;;;;;;8.15;2.50;;;;;;;13.90;87.04;100900.88;5010292;28;20116;-46
2023/10/02 10:46:14;;;;;;;12.52;1.88;;;;;;;13.93;86.72;100910.47;5008519;28;20037;-48
2023/10/02 10:48:41;;;;;;;7.60;1.77;;;;;;;13.94;86.58;100892.63;5009095;28;20053;-46
2023/10/02 10:51:20;;;;;;;8.75;1.98;;;;;;;13.95;86.47;100902.59;5009213;28;20038;-46
2023/10/02 10:53:52;;;;;;;10.70;3.33;;;;;;;13.96;86.50;100902.22;5008653;28;20133;-47
2023/10/02 10:56:22;;;;;;;7.53;1.58;;;;;;;13.97;86.33;100895.47;5009340;28;20053;-47
2023/10/02 10:59:02;;;;;;;8.95;1.95;;;;;;;13.98;86.37;100888.72;5007798;28;20056;-47
2023/10/02 11:01:29;;;;;;;7.78;2.03;;;;;;;14.01;86.38;100888.00;5010408;28;20574;-46
2023/10/02 11:04:02;;;;;;;10.70;2.92;;;;;;;14.04;86.36;100892.84;5008699;28;20065;-42
2023/10/02 11:06:31;;;;;;;7.50;1.48;;;;;;;14.08;86.23;100892.13;5007329;28;20400;-47
2023/10/02 11:09:11;;;;;;;13.35;3.45;;;;;;;14.08;86.25;100892.94;5009024;28;20050;-51
2023/10/02 11:11:49;;;;;;;11.25;2.50;;;;;;;14.08;86.17;100892.13;5009098;28;20046;-48
2023/10/02 11:14:22;;;;;;;11.85;2.60;;;;;;;14.07;86.13;100885.75;5008974;28;20045;-48
2023/10/02 11:16:54;;;;;;;10.70;2.40;;;;;;;14.07;86.17;100884.94;5007965;28;20046;-50
2023/10/02 11:22:14;;;;;;;7.03;2.70;;;;;;;14.03;85.84;100871.72;5008675;28;20042;-46
2023/10/02 11:25:24;;;;;;;9.77;1.80;;;;;;;14.02;85.86;100872.94;5006230;28;20125;-49
2023/10/02 11:27:57;;;;;;;8.70;1.65;;;;;;;14.03;85.85;100866.16;5008917;28;20061;-46
2023/10/02 11:30:31;;;;;;;10.20;1.90;;;;;;;14.07;85.75;100873.78;5008906;28;20041;-47
2023/10/02 11:33:04;;;;;;;8.85;3.08;;;;;;;14.06;85.70;100870.19;5008597;28;20038;-47
2023/10/02 11:35:40;;;;;;;13.85;2.25;;;;;;;14.08;85.52;100878.19;5023380;28;20050;-46
2023/10/02 11:38:12;;;;;;;8.10;2.53;;;;;;;14.08;85.56;100872.63;5008773;28;20053;-46
2023/10/02 11:40:43;;;;;;;10.85;2.40;;;;;;;14.11;85.43;100875.47;5008667;28;20093;-48
2023/10/02 11:43:11;;;;;;;10.43;2.85;;;;;;;14.13;85.51;100881.50;5008865;28;20534;-46
2023/10/02 11:45:37;;;;;;;6.68;2.10;;;;;;;14.14;85.24;100880.31;5008571;28;20041;-46
2023/10/02 11:48:09;;;;;;;20.42;2.78;;;;;;;14.17;85.08;100884.34;5008644;28;20062;-46
2023/10/02 11:50:38;;;;;;;12.23;2.97;;;;;;;14.21;84.91;100890.81;5007767;28;20049;-47
2023/10/02 11:53:06;;;;;;;9.63;1.83;;;;;;;14.28;84.92;100890.94;5008996;28;20146;-47
2023/10/02 11:55:33;;;;;;;12.50;2.13;;;;;;;14.33;84.61;100897.06;5007320;28;20052;-47
2023/10/02 11:58:00;;;;;;;7.78;1.80;;;;;;;14.37;83.96;100895.16;5008422;28;20132;-47
2023/10/02 12:00:27;;;;;;;8.25;1.92;;;;;;;14.43;83.80;100887.28;5008104;28;20111;-48
2023/10/02 12:02:56;;;;;;;7.93;1.90;;;;;;;14.47;83.70;100880.66;5007223;28;20081;-50
2023/10/02 12:05:25;;;;;;;8.60;1.67;;;;;;;14.53;83.52;100875.59;5012266;28;20361;-47
2023/10/02 12:07:52;;;;;;;8.63;2.17;;;;;;;14.55;83.31;100895.50;5012433;28;20049;-46
2023/10/02 12:10:19;;;;;;;5.85;1.48;;;;;;;14.57;83.20;100873.66;5011112;28;20046;-47
2023/10/02 12:12:45;;;;;;;12.77;2.80;;;;;;;14.60;83.06;100881.28;5011377;28;20049;-48
2023/10/02 12:15:16;;;;;;;6.93;2.47;;;;;;;14.63;82.64;100877.75;5006834;28;20046;-48
2023/10/02 12:17:44;;;;;;;12.88;3.17;;;;;;;14.65;83.01;100872.63;5010917;28;20066;-47
2023/10/02 12:20:12;;;;;;;18.25;4.03;;;;;;;14.67;83.01;100869.47;5011778;28;20046;-47
2023/10/02 12:22:44;;;;;;;7.55;2.08;;;;;;;14.64;82.61;100865.41;5009551;28;20042;-47
2023/10/02 12:25:11;;;;;;;14.25;2.67;;;;;;;14.62;82.61;100868.59;5009698;28;20060;-47
2023/10/02 12:27:41;;;;;;;6.80;2.67;;;;;;;14.60;82.30;100853.41;5006544;28;20060;-47
2023/10/02 12:30:11;;;;;;;5.88;1.67;;;;;;;14.61;82.36;100855.03;5010721;28;20135;-47
2023/10/02 12:32:39;;;;;;;7.57;1.77;;;;;;;14.62;81.99;100851.06;5009780;28;20053;-46
2023/10/02 12:35:06;;;;;;;7.72;1.92;;;;;;;14.63;81.84;100852.69;5010977;28;20037;-47
2023/10/02 12:37:33;;;;;;;10.07;1.75;;;;;;;14.64;81.62;100848.69;5010502;28;22942;-48
2023/10/02 12:40:00;;;;;;;8.50;2.25;;;;;;;14.64;81.46;100843.94;5010962;28;20046;-49
2023/10/02 12:42:32;;;;;;;8.88;1.40;;;;;;;14.66;81.38;100842.78;5010972;28;20056;-46
2023/10/02 12:44:58;;;;;;;8.55;2.03;;;;;;;14.67;81.16;100836.81;5009536;28;20046;-49
2023/10/02 12:47:25;;;;;;;11.98;3.17;;;;;;;14.66;80.88;100829.66;5006462;28;20041;-46